Time;durP1;ratioP1;P1;durP2;ratioP2;P2;SDS_P1;SDS_P2;PMS_P1;PMS_P2;Temp;Humidity;BMP_temperature;BMP_pressure;BME280_temperature;BME280_humidity;BME280_pressure;Samples;Min_cycle;Max_cycle;Signal;HPM_P1;HPM_P2
2021/07/03 00:01:03;;;;;;;8.82;5.25;;;;;;;16.71;78.88;96430.13;5040085;28;20204;-69
2021/07/03 00:03:29;;;;;;;8.98;5.45;;;;;;;16.81;77.76;96429.66;5039464;28;20237;-69
2021/07/03 00:05:56;;;;;;;9.70;5.75;;;;;;;16.72;78.10;96430.91;5039683;28;20205;-69
2021/07/03 00:08:27;;;;;;;9.60;5.38;;;;;;;16.84;78.12;96434.53;5039228;28;20217;-69
2021/07/03 00:10:54;;;;;;;10.60;5.65;;;;;;;16.80;78.61;96428.84;5039541;28;20604;-70
2021/07/03 00:13:20;;;;;;;11.25;5.70;;;;;;;16.81;78.08;96427.78;5039060;28;20197;-70
2021/07/03 00:15:47;;;;;;;12.00;6.00;;;;;;;16.83;77.82;96431.06;5039823;28;20380;-68
2021/07/03 00:18:14;;;;;;;13.05;6.20;;;;;;;16.81;78.60;96429.66;5038519;28;20213;-70
2021/07/03 00:20:41;;;;;;;14.13;6.70;;;;;;;16.75;78.29;96433.16;5039137;28;20967;-70
2021/07/03 00:23:08;;;;;;;15.55;6.22;;;;;;;16.78;77.64;96441.53;5039572;28;20220;-70
2021/07/03 00:25:36;;;;;;;11.50;5.70;;;;;;;16.82;77.65;96436.63;5040287;28;20725;-69
2021/07/03 00:28:03;;;;;;;10.93;6.05;;;;;;;16.81;78.06;96440.31;5038381;28;20743;-69
2021/07/03 00:30:29;;;;;;;12.90;6.22;;;;;;;16.78;78.46;96443.38;5038961;28;20685;-69
2021/07/03 00:32:56;;;;;;;9.68;6.00;;;;;;;16.54;78.17;96431.56;5039541;28;20205;-68
2021/07/03 00:35:22;;;;;;;10.02;5.63;;;;;;;16.52;78.39;96435.47;5039282;28;20198;-69
2021/07/03 00:37:49;;;;;;;9.75;5.50;;;;;;;16.50;78.18;96426.88;5038029;28;20225;-69
2021/07/03 00:40:16;;;;;;;12.45;5.68;;;;;;;16.54;78.77;96433.44;5039517;28;20193;-68
2021/07/03 00:42:44;;;;;;;14.93;6.05;;;;;;;16.60;79.47;96429.94;5039019;28;20205;-69
2021/07/03 00:45:11;;;;;;;11.43;6.60;;;;;;;16.56;79.63;96431.38;5039034;28;20225;-70
2021/07/03 00:47:39;;;;;;;11.77;5.78;;;;;;;16.61;79.49;96434.22;5037960;28;20664;-68
2021/07/03 00:50:09;;;;;;;11.63;5.65;;;;;;;16.56;79.17;96432.19;5038790;28;20205;-70
2021/07/03 00:52:36;;;;;;;13.93;5.97;;;;;;;16.53;78.84;96431.78;5038890;28;20201;-70
2021/07/03 00:55:02;;;;;;;9.80;6.07;;;;;;;16.65;78.31;96424.81;5038745;28;20204;-68
2021/07/03 00:57:31;;;;;;;10.60;6.32;;;;;;;16.73;78.13;96427.22;5038043;28;20221;-70
2021/07/03 01:00:00;;;;;;;10.98;6.05;;;;;;;16.74;78.09;96426.22;5038262;28;21018;-69
2021/07/03 01:02:27;;;;;;;12.27;6.38;;;;;;;16.64;78.66;96423.97;5038803;28;20249;-68
2021/07/03 01:04:54;;;;;;;11.30;5.90;;;;;;;16.63;78.25;96424.19;5039003;28;20236;-70
2021/07/03 01:07:20;;;;;;;9.13;6.10;;;;;;;16.55;78.03;96425.22;5037929;28;20221;-70
2021/07/03 01:09:47;;;;;;;9.70;5.80;;;;;;;16.46;78.61;96425.69;5038493;28;20205;-69
2021/07/03 01:12:13;;;;;;;9.05;5.85;;;;;;;16.22;79.48;96423.63;5038667;28;20208;-69
2021/07/03 01:14:43;;;;;;;10.93;6.07;;;;;;;16.35;79.09;96428.97;5038274;28;20212;-69
2021/07/03 01:17:11;;;;;;;14.00;5.70;;;;;;;16.41;79.07;96422.81;5037703;28;20217;-68
2021/07/03 01:19:38;;;;;;;9.95;6.05;;;;;;;16.34;79.37;96419.34;5038740;28;20205;-69
2021/07/03 01:22:08;;;;;;;13.00;5.88;;;;;;;16.49;78.86;96420.72;5038503;28;20581;-68
2021/07/03 01:24:34;;;;;;;11.98;5.70;;;;;;;16.26;78.87;96406.28;5038586;28;20228;-69
2021/07/03 01:27:01;;;;;;;8.85;5.60;;;;;;;16.32;78.46;96417.91;5037787;28;20209;-69
2021/07/03 01:29:29;;;;;;;9.80;5.43;;;;;;;16.40;78.19;96420.38;5037857;28;20208;-69
2021/07/03 01:31:59;;;;;;;8.95;5.90;;;;;;;16.43;78.37;96423.41;5038283;28;20205;-70
2021/07/03 01:34:27;;;;;;;12.32;6.07;;;;;;;16.22;79.30;96425.50;5039129;28;20193;-71
2021/07/03 01:36:54;;;;;;;12.60;6.57;;;;;;;16.26;78.90;96424.88;5038033;28;20205;-69
2021/07/03 01:39:23;;;;;;;13.82;6.05;;;;;;;16.24;79.01;96421.59;5036691;28;20212;-69
2021/07/03 01:41:50;;;;;;;11.98;6.75;;;;;;;16.27;79.36;96418.56;5038119;28;20216;-69
2021/07/03 01:44:18;;;;;;;10.18;6.45;;;;;;;16.26;80.22;96405.47;5038415;28;20225;-69
2021/07/03 01:46:44;;;;;;;11.93;6.40;;;;;;;16.00;80.41;96416.91;5037689;28;20723;-69
2021/07/03 01:49:11;;;;;;;12.07;6.43;;;;;;;16.08;80.22;96419.34;5036927;28;20224;-70
2021/07/03 01:51:38;;;;;;;15.30;6.43;;;;;;;16.13;79.96;96419.56;5037738;28;20208;-68
2021/07/03 01:54:05;;;;;;;10.45;6.38;;;;;;;15.81;80.96;96413.44;5037573;28;20194;-69
2021/07/03 01:56:33;;;;;;;10.10;6.35;;;;;;;15.87;80.74;96408.97;5037288;28;20216;-70
2021/07/03 01:58:59;;;;;;;12.35;6.15;;;;;;;15.77;80.50;96409.56;5036557;28;20243;-68
2021/07/03 02:01:26;;;;;;;11.45;5.85;;;;;;;15.32;82.38;96408.53;5038035;28;20197;-68
2021/07/03 02:03:52;;;;;;;10.80;6.28;;;;;;;15.55;81.33;96416.91;5036738;28;20229;-69
2021/07/03 02:06:19;;;;;;;10.13;6.28;;;;;;;15.44;83.46;96417.50;5037770;28;20197;-69
2021/07/03 02:08:45;;;;;;;11.23;6.57;;;;;;;15.65;82.57;96414.66;5036676;28;20334;-68
2021/07/03 02:11:12;;;;;;;17.13;6.30;;;;;;;15.64;81.77;96422.84;5036975;28;20205;-69
2021/07/03 02:13:40;;;;;;;10.45;6.18;;;;;;;15.77;80.75;96414.88;5037182;28;20825;-68
2021/07/03 02:16:06;;;;;;;12.98;6.50;;;;;;;15.61;81.53;96413.44;5037286;28;20214;-68
2021/07/03 02:18:33;;;;;;;10.48;6.35;;;;;;;15.60;81.78;96406.47;5036436;28;20744;-69
2021/07/03 02:20:59;;;;;;;12.13;6.55;;;;;;;15.38;83.39;96412.19;5037130;28;20212;-69
2021/07/03 02:23:26;;;;;;;15.35;6.35;;;;;;;15.54;83.06;96404.66;5037298;28;20583;-69
2021/07/03 02:25:52;;;;;;;12.83;6.03;;;;;;;15.53;82.43;96407.50;5037134;28;20212;-68
2021/07/03 02:28:19;;;;;;;9.20;5.55;;;;;;;15.68;81.04;96406.31;5036117;28;20221;-69
2021/07/03 02:30:47;;;;;;;8.05;5.03;;;;;;;15.76;80.39;96410.56;5036927;28;20205;-69
2021/07/03 02:33:15;;;;;;;11.43;6.13;;;;;;;15.78;80.87;96413.84;5036887;28;20205;-68
2021/07/03 02:35:42;;;;;;;10.07;5.67;;;;;;;15.64;81.69;96420.19;5033096;28;20205;-68
2021/07/03 02:38:08;;;;;;;8.05;5.28;;;;;;;15.56;80.72;96423.03;5036769;28;20225;-70
2021/07/03 02:40:35;;;;;;;12.37;5.60;;;;;;;15.60;81.00;96427.72;5037093;28;20215;-69
2021/07/03 02:43:01;;;;;;;10.07;5.70;;;;;;;15.68;80.58;96424.06;5036913;28;20209;-69
2021/07/03 02:45:27;;;;;;;10.40;5.13;;;;;;;15.62;79.35;96417.75;5036987;28;20228;-69
2021/07/03 02:47:55;;;;;;;10.75;6.57;;;;;;;15.54;82.38;96417.94;5036713;28;20240;-69
2021/07/03 02:50:22;;;;;;;11.07;6.43;;;;;;;15.36;84.14;96420.38;5036671;28;20988;-69
2021/07/03 02:52:50;;;;;;;14.00;6.53;;;;;;;15.49;83.14;96424.84;5033573;28;20300;-69
2021/07/03 02:55:16;;;;;;;13.93;7.97;;;;;;;15.42;84.17;96426.69;5037312;28;20208;-69
2021/07/03 02:57:43;;;;;;;11.48;6.53;;;;;;;15.29;83.54;96430.16;5035974;28;20266;-68
2021/07/03 03:00:13;;;;;;;10.77;6.43;;;;;;;15.24;83.58;96434.44;5036897;28;20583;-69
2021/07/03 03:02:39;;;;;;;10.93;6.28;;;;;;;15.34;82.41;96430.38;5037143;28;20211;-70
2021/07/03 03:05:10;;;;;;;11.93;7.30;;;;;;;15.40;83.28;96439.34;5036378;28;20221;-70
2021/07/03 03:07:37;;;;;;;13.85;7.07;;;;;;;15.48;83.59;96439.19;5036085;28;20221;-69
2021/07/03 03:10:05;;;;;;;11.45;7.45;;;;;;;15.58;83.83;96429.78;5036629;28;20201;-70
2021/07/03 03:12:32;;;;;;;13.73;7.25;;;;;;;15.26;83.63;96424.41;5036843;28;20205;-69
2021/07/03 03:14:58;;;;;;;11.70;6.82;;;;;;;15.35;82.79;96429.34;5038133;28;20215;-68
2021/07/03 03:17:25;;;;;;;13.50;7.22;;;;;;;15.38;82.25;96423.63;5040114;28;20232;-68
2021/07/03 03:19:52;;;;;;;15.43;7.50;;;;;;;15.40;82.38;96429.56;5040849;28;20224;-68
2021/07/03 03:22:19;;;;;;;15.00;6.70;;;;;;;15.51;82.40;96420.19;5040559;28;20205;-69
2021/07/03 03:24:46;;;;;;;10.68;6.47;;;;;;;15.30;82.00;96425.66;5040559;28;20256;-69
2021/07/03 03:27:13;;;;;;;11.90;6.50;;;;;;;15.19;82.61;96418.25;5040229;28;20253;-69
2021/07/03 03:29:40;;;;;;;7.80;5.20;;;;;;;15.30;81.23;96415.06;5037623;28;20682;-68
2021/07/03 03:32:08;;;;;;;9.53;5.60;;;;;;;15.41;80.80;96417.09;5040494;28;20216;-69
2021/07/03 03:34:34;;;;;;;9.82;5.90;;;;;;;15.40;81.00;96423.41;5040891;28;20212;-69
2021/07/03 03:37:01;;;;;;;11.20;6.20;;;;;;;15.38;81.99;96418.31;5040040;28;20209;-69
2021/07/03 03:39:29;;;;;;;14.07;7.75;;;;;;;15.34;83.10;96421.59;5039899;28;20213;-68
2021/07/03 03:41:55;;;;;;;10.23;6.25;;;;;;;15.31;81.62;96411.34;5040442;28;20210;-69
2021/07/03 03:44:22;;;;;;;10.50;6.33;;;;;;;15.37;81.29;96413.22;5040181;28;20232;-69
2021/07/03 03:46:51;;;;;;;14.38;6.95;;;;;;;15.35;81.82;96407.28;5039814;28;20692;-68
2021/07/03 03:49:18;;;;;;;13.97;7.63;;;;;;;15.32;82.31;96408.53;5039616;28;20197;-69
2021/07/03 03:51:45;;;;;;;11.97;7.13;;;;;;;15.33;82.63;96422.59;5040565;28;20224;-69
2021/07/03 03:54:11;;;;;;;13.20;7.37;;;;;;;15.47;82.27;96421.59;5036454;28;20205;-70
2021/07/03 03:56:39;;;;;;;12.73;8.07;;;;;;;15.50;83.24;96414.06;5039572;28;20712;-68
2021/07/03 03:59:05;;;;;;;14.13;7.70;;;;;;;15.47;82.65;96416.28;5039870;28;21248;-68
2021/07/03 04:01:32;;;;;;;13.73;7.13;;;;;;;15.55;82.08;96416.09;5040162;28;20209;-68
2021/07/03 04:03:58;;;;;;;14.02;7.72;;;;;;;15.62;82.37;96403.66;5039264;28;21174;-69
2021/07/03 04:06:25;;;;;;;13.57;8.45;;;;;;;15.45;84.45;96405.88;5040138;28;21148;-68
2021/07/03 04:08:51;;;;;;;17.80;8.85;;;;;;;15.44;85.08;96403.41;5039279;28;20252;-69
2021/07/03 04:11:18;;;;;;;14.40;8.50;;;;;;;15.52;85.08;96400.56;5039415;28;20927;-69
2021/07/03 04:13:46;;;;;;;13.82;8.52;;;;;;;15.66;84.10;96404.88;5039797;28;20205;-68
2021/07/03 04:16:12;;;;;;;13.43;7.72;;;;;;;15.62;84.18;96411.63;5039520;28;20681;-70
2021/07/03 04:18:39;;;;;;;16.27;8.27;;;;;;;15.73;83.86;96405.69;5038532;28;20217;-68
2021/07/03 04:21:05;;;;;;;16.75;8.10;;;;;;;15.76;83.87;96407.91;5039684;28;20212;-69
2021/07/03 04:23:32;;;;;;;14.68;8.07;;;;;;;15.78;84.10;96403.22;5039476;28;20217;-69
2021/07/03 04:25:58;;;;;;;15.48;9.32;;;;;;;15.93;83.30;96413.44;5038169;28;20221;-68
2021/07/03 04:28:25;;;;;;;16.67;8.65;;;;;;;15.84;83.74;96409.34;5038924;28;20221;-68
2021/07/03 04:30:52;;;;;;;12.52;7.68;;;;;;;15.60;85.37;96414.44;5039636;28;20205;-69
2021/07/03 04:33:19;;;;;;;15.82;7.57;;;;;;;15.58;85.65;96405.03;5039101;28;20585;-69
2021/07/03 04:35:45;;;;;;;16.02;8.05;;;;;;;15.70;85.71;96406.09;5039267;28;20204;-69
2021/07/03 04:38:12;;;;;;;15.38;9.32;;;;;;;15.85;85.14;96410.97;5038681;28;20225;-68
2021/07/03 04:40:38;;;;;;;16.77;8.48;;;;;;;15.96;84.60;96412.19;5038933;28;20205;-70
2021/07/03 04:43:05;;;;;;;19.30;9.23;;;;;;;16.03;83.89;96413.03;5038991;28;21095;-69
2021/07/03 04:45:31;;;;;;;16.27;8.70;;;;;;;15.85;86.66;96415.50;5039111;28;20229;-68
2021/07/03 04:47:59;;;;;;;14.68;8.52;;;;;;;16.18;86.13;96417.09;5038609;28;20228;-68
2021/07/03 04:50:25;;;;;;;16.48;9.10;;;;;;;16.19;86.56;96417.91;5038906;28;20208;-68
2021/07/03 04:52:52;;;;;;;15.27;9.07;;;;;;;16.28;86.03;96416.69;5036031;28;20217;-69
2021/07/03 04:55:19;;;;;;;20.52;9.38;;;;;;;16.38;86.07;96423.25;5039377;28;20204;-68
2021/07/03 04:57:45;;;;;;;17.20;9.98;;;;;;;16.43;85.62;96415.44;5037970;28;20248;-69
2021/07/03 05:00:13;;;;;;;22.40;9.60;;;;;;;16.55;86.31;96411.94;5039102;28;20227;-70
2021/07/03 05:02:39;;;;;;;19.23;9.60;;;;;;;16.48;86.38;96410.31;5038805;28;20699;-69
2021/07/03 05:05:08;;;;;;;19.88;9.95;;;;;;;16.73;87.32;96413.94;5038495;28;20589;-68
2021/07/03 05:07:35;;;;;;;19.48;9.68;;;;;;;16.82;87.14;96410.00;5037712;28;20264;-69
2021/07/03 05:10:01;;;;;;;18.25;9.32;;;;;;;16.85;87.57;96410.41;5038907;28;20218;-68
2021/07/03 05:12:28;;;;;;;18.83;9.30;;;;;;;16.93;87.63;96414.66;5038574;28;20201;-69
2021/07/03 05:14:54;;;;;;;15.00;9.10;;;;;;;17.09;86.43;96407.00;5038856;28;20194;-68
2021/07/03 05:17:21;;;;;;;19.50;10.70;;;;;;;17.24;85.86;96403.03;5037474;28;20217;-68
2021/07/03 05:19:47;;;;;;;19.55;10.93;;;;;;;17.35;84.72;96407.72;5038229;28;20204;-67
2021/07/03 05:22:15;;;;;;;17.60;10.70;;;;;;;17.47;84.13;96399.84;5037946;28;20201;-69
2021/07/03 05:24:41;;;;;;;16.60;10.48;;;;;;;17.51;85.44;96404.50;5038348;28;20236;-69
2021/07/03 05:27:08;;;;;;;21.40;11.75;;;;;;;17.63;84.70;96402.81;5038139;28;20197;-69
2021/07/03 05:29:34;;;;;;;17.73;10.93;;;;;;;17.81;84.41;96408.22;5038108;28;20212;-69
2021/07/03 05:32:01;;;;;;;19.30;11.05;;;;;;;17.86;85.34;96411.84;5038437;28;20666;-68
2021/07/03 05:34:27;;;;;;;20.75;11.38;;;;;;;17.86;84.16;96403.84;5038026;28;20205;-69
2021/07/03 05:36:54;;;;;;;20.80;11.77;;;;;;;17.80;83.09;96398.56;5037660;28;20205;-69
2021/07/03 05:39:21;;;;;;;18.33;11.32;;;;;;;17.89;83.42;96406.06;5036492;28;20197;-70
2021/07/03 05:41:48;;;;;;;20.65;11.68;;;;;;;18.00;83.20;96404.56;5037937;28;20223;-69
2021/07/03 05:44:14;;;;;;;21.90;11.27;;;;;;;18.16;84.25;96404.00;5037849;28;20212;-68
2021/07/03 05:46:41;;;;;;;18.35;11.40;;;;;;;18.22;84.45;96405.81;5038177;28;20709;-69
2021/07/03 05:49:08;;;;;;;18.60;10.75;;;;;;;17.97;83.65;96411.16;5037402;28;20236;-69
2021/07/03 05:51:36;;;;;;;24.98;12.93;;;;;;;18.18;82.90;96409.97;5037770;28;20209;-69
2021/07/03 05:54:03;;;;;;;20.00;11.80;;;;;;;18.10;85.29;96407.53;5034411;28;20205;-69
2021/07/03 05:56:31;;;;;;;21.15;11.50;;;;;;;18.28;84.02;96396.94;5038187;28;20208;-70
2021/07/03 05:58:57;;;;;;;19.60;11.63;;;;;;;18.31;84.38;96399.16;5037441;28;20236;-69
2021/07/03 06:01:24;;;;;;;17.83;11.35;;;;;;;18.65;83.23;96402.09;5037560;28;20201;-69
2021/07/03 06:03:51;;;;;;;20.60;11.30;;;;;;;18.70;82.23;96403.03;5037529;28;20204;-69
2021/07/03 06:06:17;;;;;;;19.67;11.43;;;;;;;18.79;81.66;96400.88;5038085;28;20221;-70
2021/07/03 06:08:44;;;;;;;17.45;10.85;;;;;;;18.99;80.38;96394.25;5036724;28;20225;-68
2021/07/03 06:11:11;;;;;;;21.85;11.18;;;;;;;19.13;80.72;96385.06;5037482;28;20201;-69
2021/07/03 06:13:38;;;;;;;18.63;11.55;;;;;;;19.38;79.96;96386.56;5037540;28;20567;-69
2021/07/03 06:16:05;;;;;;;19.95;10.90;;;;;;;19.24;82.74;96386.97;5037318;28;20197;-69
2021/07/03 06:18:32;;;;;;;18.83;11.27;;;;;;;19.46;84.14;96380.09;5036090;28;20236;-68
2021/07/03 06:20:59;;;;;;;21.10;12.07;;;;;;;19.71;82.04;96381.53;5037444;28;20249;-69
2021/07/03 06:23:25;;;;;;;18.70;11.43;;;;;;;19.80;81.40;96377.50;5037159;28;20208;-69
2021/07/03 06:25:52;;;;;;;21.15;11.82;;;;;;;19.86;81.17;96374.72;5037148;28;20236;-69
2021/07/03 06:28:18;;;;;;;20.50;10.95;;;;;;;19.81;80.95;96379.94;5036794;28;20228;-68
2021/07/03 06:30:46;;;;;;;19.73;12.00;;;;;;;20.22;81.11;96382.56;5036693;28;20212;-69
2021/07/03 06:33:13;;;;;;;21.60;11.55;;;;;;;20.08;80.24;96373.13;5036846;28;20201;-69
2021/07/03 06:35:39;;;;;;;18.77;10.50;;;;;;;20.12;80.64;96376.97;5037209;28;20292;-69
2021/07/03 06:38:06;;;;;;;23.60;11.38;;;;;;;20.29;78.30;96372.56;5036542;28;20217;-69
2021/07/03 06:40:33;;;;;;;20.27;11.23;;;;;;;20.39;79.92;96368.25;5036961;28;20209;-70
2021/07/03 06:42:59;;;;;;;19.88;11.48;;;;;;;20.07;80.74;96371.50;5036772;28;20212;-69
2021/07/03 06:45:26;;;;;;;22.83;11.07;;;;;;;20.28;82.42;96376.28;5036533;28;20221;-70
2021/07/03 06:47:53;;;;;;;18.30;11.10;;;;;;;20.55;80.48;96378.22;5036206;28;20260;-70
2021/07/03 06:50:20;;;;;;;20.75;12.00;;;;;;;20.66;80.01;96369.38;5036261;28;20198;-68
2021/07/03 06:52:47;;;;;;;17.70;10.25;;;;;;;20.91;75.94;96367.22;5034512;28;20613;-69
2021/07/03 06:55:14;;;;;;;18.88;11.48;;;;;;;20.58;80.15;96366.22;5036747;28;20692;-69
2021/07/03 06:57:41;;;;;;;18.20;10.90;;;;;;;21.19;77.33;96370.75;5035713;28;20236;-69
2021/07/03 07:00:10;;;;;;;17.92;10.60;;;;;;;21.37;74.94;96370.53;5036827;28;20204;-68
2021/07/03 07:02:37;;;;;;;20.58;11.05;;;;;;;21.65;75.08;96370.56;5036720;28;20220;-68
2021/07/03 07:05:07;;;;;;;17.58;10.07;;;;;;;21.76;72.27;96365.13;5036604;28;20209;-70
2021/07/03 07:07:34;;;;;;;18.52;10.20;;;;;;;21.00;76.06;96361.28;5036550;28;20221;-70
2021/07/03 07:10:00;;;;;;;19.63;10.70;;;;;;;21.50;74.67;96363.06;5036884;28;20208;-69
2021/07/03 07:12:27;;;;;;;19.73;10.48;;;;;;;21.76;76.38;96361.63;5035914;28;20213;-69
2021/07/03 07:14:53;;;;;;;17.80;10.70;;;;;;;21.91;75.51;96360.00;5035673;28;20205;-70
2021/07/03 07:17:19;;;;;;;19.52;10.63;;;;;;;22.07;73.81;96360.00;5034571;28;20212;-69
2021/07/03 07:19:46;;;;;;;18.77;10.07;;;;;;;22.15;71.78;96359.59;5035675;28;20234;-68
2021/07/03 07:22:14;;;;;;;16.13;9.70;;;;;;;22.05;74.44;96364.81;5035079;28;21042;-69
2021/07/03 07:24:41;;;;;;;13.32;8.00;;;;;;;21.43;73.18;96364.22;5035454;28;20205;-69
2021/07/03 07:27:07;;;;;;;14.32;8.90;;;;;;;22.07;71.59;96354.66;5034620;28;20689;-69
2021/07/03 07:29:34;;;;;;;15.48;9.00;;;;;;;22.23;73.03;96364.53;5035724;28;20768;-69
2021/07/03 07:32:01;;;;;;;16.25;10.30;;;;;;;22.36;70.38;96358.84;5035680;28;21032;-69
2021/07/03 07:34:28;;;;;;;17.38;10.32;;;;;;;22.55;68.55;96368.25;5036399;28;20202;-69
2021/07/03 07:36:54;;;;;;;18.35;9.73;;;;;;;22.28;69.78;96361.16;5036262;28;20197;-69
2021/07/03 07:39:22;;;;;;;19.00;10.45;;;;;;;22.57;71.14;96347.34;5035198;28;20208;-69
2021/07/03 07:41:48;;;;;;;17.48;10.30;;;;;;;22.30;72.86;96349.13;5035445;28;20212;-70
2021/07/03 07:44:15;;;;;;;19.42;10.45;;;;;;;22.67;69.12;96347.50;5035936;28;20790;-69
2021/07/03 07:46:41;;;;;;;17.48;10.20;;;;;;;23.06;67.18;96349.06;5035327;28;20224;-69
2021/07/03 07:49:08;;;;;;;20.20;10.30;;;;;;;23.40;66.74;96346.75;5034822;28;20213;-70
2021/07/03 07:51:34;;;;;;;16.23;9.43;;;;;;;23.29;67.77;96340.72;5035694;28;20212;-68
2021/07/03 07:54:01;;;;;;;17.50;9.68;;;;;;;23.43;66.42;96345.44;5033656;28;20216;-68
2021/07/03 07:56:28;;;;;;;20.15;9.65;;;;;;;23.14;65.18;96343.25;5036416;28;20216;-69
2021/07/03 07:58:55;;;;;;;17.17;9.43;;;;;;;23.25;63.56;96336.94;5034810;28;20233;-69
2021/07/03 08:01:24;;;;;;;15.13;8.88;;;;;;;23.09;65.01;96338.66;5036098;28;20452;-68
2021/07/03 08:03:50;;;;;;;17.65;9.13;;;;;;;23.08;64.43;96334.31;5039230;28;20201;-68
2021/07/03 08:06:17;;;;;;;16.10;8.65;;;;;;;23.18;64.17;96341.69;5039480;28;20586;-69
2021/07/03 08:08:43;;;;;;;15.20;8.48;;;;;;;23.51;63.54;96339.59;5038712;28;20225;-69
2021/07/03 08:11:09;;;;;;;13.50;8.13;;;;;;;22.90;65.37;96336.50;5039526;28;20209;-68
2021/07/03 08:13:37;;;;;;;19.17;9.25;;;;;;;23.17;65.76;96337.38;5039140;28;20597;-68
2021/07/03 08:16:04;;;;;;;12.25;8.60;;;;;;;23.33;66.13;96329.19;5038467;28;20204;-69
2021/07/03 08:18:31;;;;;;;15.80;8.70;;;;;;;23.30;63.39;96330.53;5038428;28;20246;-68
2021/07/03 08:20:58;;;;;;;13.10;8.45;;;;;;;23.67;64.27;96328.72;5039387;28;20205;-69
2021/07/03 08:23:24;;;;;;;14.77;8.57;;;;;;;23.95;60.09;96325.78;5039881;28;20197;-70
2021/07/03 08:25:51;;;;;;;16.30;8.23;;;;;;;23.91;61.47;96327.38;5039242;28;20220;-68
2021/07/03 08:28:18;;;;;;;17.33;7.65;;;;;;;24.13;63.42;96317.28;5038500;28;20232;-70
2021/07/03 08:30:45;;;;;;;13.52;8.32;;;;;;;23.92;61.16;96320.91;5039427;28;20237;-70
2021/07/03 08:33:12;;;;;;;14.40;7.50;;;;;;;23.93;59.04;96325.25;5039105;28;20220;-68
2021/07/03 08:35:38;;;;;;;11.05;7.15;;;;;;;24.03;57.38;96319.91;5039303;28;20212;-69
2021/07/03 08:38:05;;;;;;;10.32;6.93;;;;;;;24.22;54.83;96313.03;5038208;28;20667;-69
2021/07/03 08:40:31;;;;;;;11.90;7.20;;;;;;;23.96;56.21;96322.03;5039157;28;20712;-69
2021/07/03 08:42:58;;;;;;;11.15;6.50;;;;;;;24.48;57.74;96321.06;5039132;28;20370;-69
2021/07/03 08:45:24;;;;;;;10.10;7.00;;;;;;;24.60;54.99;96309.00;5039041;28;20205;-69
2021/07/03 08:47:52;;;;;;;11.13;7.18;;;;;;;24.81;54.98;96308.03;5038333;28;20600;-69
2021/07/03 08:50:19;;;;;;;10.80;6.05;;;;;;;25.05;57.88;96306.53;5038805;28;20201;-68
2021/07/03 08:52:46;;;;;;;11.13;6.43;;;;;;;25.14;52.87;96309.50;5036041;28;20589;-69
2021/07/03 08:55:19;;;;;;;8.38;5.03;;;;;;;25.16;52.84;96304.66;5039449;28;20201;-69
2021/07/03 08:57:49;;;;;;;8.13;5.72;;;;;;;25.35;50.22;96307.41;5038069;28;20237;-69
2021/07/03 09:00:17;;;;;;;10.13;5.68;;;;;;;25.57;52.08;96312.56;5038311;28;20201;-68
2021/07/03 09:02:46;;;;;;;11.00;6.00;;;;;;;24.57;51.78;96306.03;5038420;28;20209;-69
2021/07/03 09:05:30;;;;;;;9.45;5.50;;;;;;;24.21;51.32;96312.25;5038871;28;20659;-68
2021/07/03 09:07:59;;;;;;;7.93;5.57;;;;;;;24.57;52.15;96306.81;5036537;28;20253;-69
2021/07/03 09:10:26;;;;;;;15.45;7.30;;;;;;;24.68;56.57;96304.97;5038479;28;20295;-69
2021/07/03 09:12:54;;;;;;;16.73;7.78;;;;;;;24.99;58.98;96302.16;5038255;28;20299;-68
2021/07/03 09:15:22;;;;;;;13.40;5.97;;;;;;;24.94;54.55;96299.44;5038615;28;20197;-68
2021/07/03 09:17:51;;;;;;;9.15;6.28;;;;;;;25.39;58.18;96305.00;5036796;28;20697;-69
2021/07/03 09:20:26;;;;;;;9.13;5.35;;;;;;;25.85;52.80;96296.69;5037494;28;20201;-69
2021/07/03 09:22:59;;;;;;;9.35;6.15;;;;;;;25.56;55.24;96294.75;5037800;28;20543;-69
2021/07/03 09:25:27;;;;;;;7.90;5.65;;;;;;;24.72;51.99;96298.81;5037913;28;20948;-69
2021/07/03 09:27:54;;;;;;;9.90;5.18;;;;;;;25.03;51.76;96297.84;5037216;28;20229;-70
2021/07/03 09:30:22;;;;;;;7.40;5.30;;;;;;;25.18;52.44;96298.72;5038726;28;20205;-69
2021/07/03 09:32:50;;;;;;;11.02;5.85;;;;;;;25.45;55.42;96295.84;5038172;28;20343;-69
2021/07/03 09:35:17;;;;;;;8.75;5.18;;;;;;;25.70;51.04;96290.44;5037916;28;20205;-68
2021/07/03 09:37:44;;;;;;;7.50;5.50;;;;;;;25.85;54.10;96288.59;5037339;28;20272;-70
2021/07/03 09:40:12;;;;;;;9.25;5.50;;;;;;;25.93;50.65;96285.38;5038775;28;20212;-69
2021/07/03 09:42:40;;;;;;;9.73;5.70;;;;;;;26.39;52.09;96282.34;5038412;28;20197;-68
2021/07/03 09:45:08;;;;;;;8.63;5.65;;;;;;;26.40;53.59;96278.56;5037484;28;20740;-69
2021/07/03 09:47:35;;;;;;;11.43;5.32;;;;;;;26.49;51.44;96285.81;5036812;28;20236;-69
2021/07/03 09:50:04;;;;;;;11.02;5.18;;;;;;;26.62;50.24;96273.63;5038215;28;20661;-69
2021/07/03 09:52:30;;;;;;;9.07;5.18;;;;;;;26.35;49.73;96283.97;5035457;28;20232;-68
2021/07/03 09:54:57;;;;;;;7.93;5.70;;;;;;;26.80;49.89;96283.84;5037737;28;20759;-70
2021/07/03 09:57:25;;;;;;;10.48;5.25;;;;;;;27.00;47.40;96276.47;5036725;28;20213;-70
2021/07/03 09:59:52;;;;;;;12.60;6.13;;;;;;;27.16;48.61;96273.41;5037659;28;20201;-69
2021/07/03 10:02:18;;;;;;;9.98;5.53;;;;;;;27.37;48.51;96274.09;5038102;28;20201;-70
2021/07/03 10:04:45;;;;;;;10.80;6.50;;;;;;;27.33;50.23;96259.50;5037646;28;20205;-69
2021/07/03 10:07:17;;;;;;;6.80;5.13;;;;;;;26.99;49.18;96257.81;5036908;28;20236;-69
2021/07/03 10:09:47;;;;;;;7.40;5.28;;;;;;;27.67;49.65;96258.47;5037081;28;20205;-68
2021/07/03 10:12:17;;;;;;;10.15;5.82;;;;;;;27.86;49.16;96246.69;5037930;28;20555;-68
2021/07/03 10:14:46;;;;;;;9.18;5.18;;;;;;;27.37;52.00;96252.44;5037302;28;20205;-69
2021/07/03 10:17:22;;;;;;;7.70;5.55;;;;;;;27.12;50.42;96239.88;5035959;28;20689;-69
2021/07/03 10:19:49;;;;;;;8.77;5.38;;;;;;;27.57;48.36;96234.19;5037628;28;20212;-68
2021/07/03 10:22:17;;;;;;;7.97;5.35;;;;;;;27.43;49.24;96232.34;5037502;28;20205;-68
2021/07/03 10:24:48;;;;;;;7.28;5.10;;;;;;;27.95;47.26;96236.03;5036643;28;20207;-69
2021/07/03 10:27:16;;;;;;;8.07;5.03;;;;;;;27.31;48.50;96240.03;5036600;28;20224;-68
2021/07/03 10:29:44;;;;;;;7.95;5.38;;;;;;;27.20;46.69;96233.88;5037393;28;20239;-68
2021/07/03 10:32:22;;;;;;;8.00;5.00;;;;;;;27.17;45.22;96234.41;5037104;28;20247;-69
2021/07/03 10:34:49;;;;;;;8.38;5.55;;;;;;;26.99;49.32;96236.19;5037251;28;20212;-68
2021/07/03 10:37:18;;;;;;;7.53;5.28;;;;;;;26.67;46.47;96233.06;5036667;28;20271;-68
2021/07/03 10:39:44;;;;;;;7.05;4.78;;;;;;;26.71;48.96;96236.81;5036756;28;20243;-68
2021/07/03 10:42:11;;;;;;;8.60;5.13;;;;;;;27.05;47.75;96229.63;5037505;28;20216;-69
2021/07/03 10:44:39;;;;;;;8.35;4.90;;;;;;;26.95;43.71;96229.66;5037267;28;20240;-69
2021/07/03 10:47:07;;;;;;;6.90;4.82;;;;;;;27.42;45.89;96230.72;5035409;28;20224;-70
2021/07/03 10:49:37;;;;;;;6.97;5.05;;;;;;;27.22;48.29;96231.69;5036488;28;20205;-70
2021/07/03 10:52:12;;;;;;;8.90;5.00;;;;;;;27.29;47.31;96225.97;5037754;28;20205;-69
2021/07/03 10:54:39;;;;;;;7.63;4.95;;;;;;;27.09;45.82;96229.59;5034286;28;20204;-69
2021/07/03 10:57:08;;;;;;;6.22;4.78;;;;;;;27.55;44.54;96228.22;5035640;28;20197;-70
2021/07/03 10:59:37;;;;;;;8.60;5.15;;;;;;;27.98;44.61;96219.22;5036184;28;20209;-69
2021/07/03 11:02:08;;;;;;;6.65;4.75;;;;;;;27.72;46.65;96217.81;5036369;28;20288;-70
2021/07/03 11:04:46;;;;;;;7.30;5.00;;;;;;;27.98;45.57;96211.88;5036411;28;20224;-70
2021/07/03 11:07:13;;;;;;;7.80;5.40;;;;;;;28.05;44.58;96208.84;5035778;28;21095;-69
2021/07/03 11:09:39;;;;;;;7.28;5.30;;;;;;;28.28;44.48;96202.66;5036772;28;20263;-69
2021/07/03 11:12:17;;;;;;;10.05;4.95;;;;;;;28.35;45.88;96202.00;5036150;28;20205;-69
2021/07/03 11:14:51;;;;;;;12.38;4.93;;;;;;;28.02;46.29;96202.09;5036567;28;20216;-69
2021/07/03 11:17:18;;;;;;;7.57;4.40;;;;;;;26.94;49.55;96199.09;5036182;28;20224;-70
2021/07/03 11:19:49;;;;;;;6.47;4.50;;;;;;;26.78;45.41;96196.75;5036274;28;20255;-70
2021/07/03 11:22:21;;;;;;;6.57;4.88;;;;;;;26.36;48.25;96198.31;5036714;28;20680;-69
2021/07/03 11:24:49;;;;;;;7.13;4.28;;;;;;;25.50;45.32;96204.88;5036589;28;20217;-69
2021/07/03 11:27:30;;;;;;;6.05;4.32;;;;;;;26.23;45.18;96193.44;5035305;28;20225;-69